createdAt,value
2023-05-05T04:53:22.266Z,92786.41
2023-05-05T04:58:24.342Z,92783.16
2023-05-05T05:03:26.429Z,92786.88
2023-05-05T05:08:28.903Z,92796.09
2023-05-05T05:13:30.875Z,92788.28
2023-05-05T05:18:32.732Z,92798.59
2023-05-05T05:23:34.707Z,92792.81
2023-05-05T05:28:36.631Z,92774.97
2023-05-05T05:33:38.501Z,92794.91
2023-05-05T05:38:41.341Z,92790.56
2023-05-05T05:43:44.182Z,92807.38
2023-05-05T05:48:46.196Z,92795.16
2023-05-05T05:53:48.792Z,92798.47
2023-05-05T05:58:50.814Z,92791.84
2023-05-05T06:03:53.777Z,92788.53
2023-05-05T06:08:56.527Z,92786.09
2023-05-05T06:13:59.231Z,92789.47
2023-05-05T06:19:01.730Z,92794.00
2023-05-05T06:24:03.952Z,92792.50
2023-05-05T06:29:06.792Z,92792.28
2023-05-05T06:34:08.593Z,92787.34
2023-05-05T06:39:10.341Z,92785.19
2023-05-05T06:44:12.075Z,92779.22
2023-05-05T06:49:13.802Z,92788.91
2023-05-05T06:54:15.556Z,92782.09
2023-05-05T06:59:17.382Z,92759.34
2023-05-05T07:04:19.272Z,92767.06
2023-05-05T07:09:21.531Z,92772.94
2023-05-05T07:14:24.525Z,92762.56
2023-05-05T07:19:26.486Z,92775.88
2023-05-05T07:24:28.314Z,92763.91
2023-05-05T07:29:30.117Z,92759.00
2023-05-05T07:34:34.365Z,92759.72
2023-05-05T07:39:36.360Z,92751.66
2023-05-05T07:44:38.147Z,92751.41
2023-05-05T07:49:39.922Z,92747.34
2023-05-05T07:54:42.453Z,92743.22
2023-05-05T07:59:44.540Z,92733.91
2023-05-05T08:04:46.435Z,92734.75
2023-05-05T08:09:48.333Z,92740.19
2023-05-05T08:14:50.148Z,92743.47
2023-05-05T08:19:52.909Z,92740.72
2023-05-05T08:24:54.693Z,92731.00
2023-05-05T08:29:57.756Z,92739.75
2023-05-05T08:35:03.264Z,92741.66
2023-05-05T08:40:06.222Z,92717.50
2023-05-05T08:45:10.008Z,92725.25
2023-05-05T08:50:12.514Z,92726.56
2023-05-05T08:55:21.800Z,92724.38
2023-05-05T09:00:24.606Z,92723.03
2023-05-05T09:05:26.801Z,92714.94
2023-05-05T09:10:29.501Z,92683.41
2023-05-05T09:15:32.159Z,92710.19
2023-05-05T09:20:38.193Z,92707.19
2023-05-05T09:25:41.719Z,92703.97
2023-05-05T09:30:46.191Z,92702.97
2023-05-05T09:35:57.364Z,92703.75
2023-05-05T09:40:59.123Z,92696.47
2023-05-05T09:46:08.036Z,92707.19
2023-05-05T09:51:09.959Z,92690.56
2023-05-05T09:56:12.267Z,92683.41
2023-05-05T10:01:22.751Z,92678.88
2023-05-05T10:06:48.584Z,92679.69
2023-05-05T10:11:50.628Z,92671.22
2023-05-05T10:16:55.311Z,92669.09
2023-05-05T10:22:03.943Z,92673.72
2023-05-05T10:27:24.007Z,92668.31
2023-05-05T10:37:41.594Z,92675.38
2023-05-05T10:42:43.755Z,92676.25
2023-05-05T10:47:45.990Z,92670.22
2023-05-05T10:53:26.787Z,92635.84
2023-05-05T10:58:55.621Z,92649.91
2023-05-05T11:04:21.583Z,92674.56
2023-05-05T11:09:28.058Z,92669.50
2023-05-05T11:14:29.857Z,92653.66
2023-05-05T11:19:43.964Z,92664.88
2023-05-05T11:24:46.345Z,92647.69
2023-05-05T11:30:08.064Z,92650.66
2023-05-05T11:35:10.012Z,92652.06
2023-05-05T11:40:35.052Z,92654.28
2023-05-05T11:45:36.839Z,92661.69
2023-05-05T11:50:38.847Z,92660.78
2023-05-05T11:55:40.551Z,92660.59
2023-05-05T12:00:42.336Z,92654.88
2023-05-05T12:05:44.316Z,92656.06
2023-05-05T12:10:45.994Z,92663.31
2023-05-05T12:15:48.271Z,92660.22
2023-05-05T12:20:50.093Z,92659.63
2023-05-05T12:25:51.878Z,92667.25
2023-05-05T12:30:57.825Z,92659.47
2023-05-05T12:35:59.565Z,92659.03
2023-05-05T12:41:02.647Z,92658.28
2023-05-05T12:46:10.729Z,92653.78
2023-05-05T12:51:14.689Z,92652.56
2023-05-05T12:56:36.418Z,92650.91
2023-05-05T13:01:49.916Z,92649.00
2023-05-05T13:07:14.784Z,92650.88
2023-05-05T13:12:18.755Z,92642.88
2023-05-05T13:17:20.526Z,92646.22
2023-05-05T13:22:22.266Z,92637.00
2023-05-05T13:27:23.986Z,92630.00
2023-05-05T13:32:25.719Z,92621.47
2023-05-05T13:37:27.776Z,92625.38
2023-05-05T13:42:29.453Z,92611.16
2023-05-05T13:47:31.205Z,92609.72
2023-05-05T13:52:33.024Z,92608.28
2023-05-05T13:57:35.425Z,92603.97
2023-05-05T14:02:37.189Z,92610.63
2023-05-05T14:07:39.104Z,92589.38
2023-05-05T14:12:40.997Z,92593.94
2023-05-05T14:17:42.870Z,92586.53
2023-05-05T14:22:44.728Z,92583.56
2023-05-05T14:27:46.535Z,92572.94
2023-05-05T14:32:48.332Z,92575.31
2023-05-05T14:37:50.111Z,92563.09
2023-05-05T14:42:51.932Z,92560.72
2023-05-05T14:47:53.946Z,92564.38
2023-05-05T14:52:55.805Z,92568.25
2023-05-05T14:57:57.640Z,92562.47
2023-05-05T15:02:59.431Z,92567.41
2023-05-05T15:08:01.468Z,92576.84
2023-05-05T15:13:03.257Z,92559.34
2023-05-05T15:18:05.600Z,92571.22
2023-05-05T15:23:07.332Z,92555.47
2023-05-05T15:28:09.116Z,92573.16
2023-05-05T15:33:11.099Z,92584.75
2023-05-05T15:38:12.845Z,92587.41
2023-05-05T15:43:14.677Z,92588.63
2023-05-05T15:48:16.456Z,92578.19
2023-05-05T15:53:18.295Z,92578.22
2023-05-05T15:58:20.175Z,92587.06
2023-05-05T16:03:22.102Z,92586.13
2023-05-05T16:08:24.145Z,92573.03
2023-05-05T16:13:25.982Z,92580.41
2023-05-05T16:18:27.798Z,92582.56
2023-05-05T16:23:29.619Z,92578.72
2023-05-05T16:28:31.413Z,92576.53
2023-05-05T16:33:33.222Z,92580.44
2023-05-05T16:38:35.019Z,92591.31
2023-05-05T16:43:37.290Z,92584.16
2023-05-05T16:48:39.242Z,92590.03
2023-05-05T16:53:41.099Z,92578.47
2023-05-05T16:58:42.935Z,92584.06
2023-05-05T17:03:44.769Z,92581.84
2023-05-05T17:08:46.740Z,92582.91
2023-05-05T17:13:48.544Z,92589.28
2023-05-05T17:18:50.478Z,92583.81
2023-05-05T17:23:52.265Z,92588.34
2023-05-05T17:28:54.043Z,92596.19
2023-05-05T17:33:56.093Z,92591.38
2023-05-05T17:38:57.934Z,92602.88
2023-05-05T17:43:59.751Z,92603.28
2023-05-05T17:49:01.605Z,92602.09
2023-05-05T17:54:03.481Z,92597.34
2023-05-05T17:59:05.280Z,92593.69
2023-05-05T18:04:07.021Z,92606.56
2023-05-05T18:09:11.238Z,92618.31
2023-05-05T18:14:13.223Z,92633.59
2023-05-05T18:19:15.618Z,92635.56
2023-05-05T18:24:20.502Z,92606.59
2023-05-05T18:29:22.709Z,92629.56
2023-05-05T18:34:24.469Z,92614.88
2023-05-05T18:39:26.941Z,92624.19
2023-05-05T18:44:29.153Z,92629.63
2023-05-05T18:49:31.564Z,92629.50
2023-05-05T18:54:34.672Z,92624.72
2023-05-05T18:59:38.053Z,92634.66
2023-05-05T19:04:41.312Z,92642.78
2023-05-05T19:09:43.297Z,92651.88
2023-05-05T19:14:45.124Z,92645.19
2023-05-05T19:19:46.899Z,92652.44
2023-05-05T19:24:48.619Z,92653.59
2023-05-05T19:29:52.518Z,92652.34
2023-05-05T19:34:54.678Z,92669.66
2023-05-05T19:39:56.555Z,92670.97
2023-05-05T19:44:58.417Z,92670.56
2023-05-05T19:50:00.288Z,92664.06
2023-05-05T19:55:02.593Z,92669.66
2023-05-05T20:00:04.919Z,92671.94
2023-05-05T20:05:07.741Z,92667.97
2023-05-05T20:10:10.639Z,92677.06
2023-05-05T20:15:12.660Z,92667.97
2023-05-05T20:20:21.305Z,92676.16
2023-05-05T20:25:23.070Z,92660.22
2023-05-05T20:30:24.855Z,92671.72
2023-05-05T20:35:26.777Z,92666.59
2023-05-05T20:40:28.601Z,92669.13
2023-05-05T20:45:31.767Z,92659.97
2023-05-05T20:50:33.524Z,92665.88
2023-05-05T20:55:35.527Z,92674.94
2023-05-05T21:00:37.450Z,92673.03
2023-05-05T21:05:42.893Z,92668.66
2023-05-05T21:10:44.755Z,92667.84
2023-05-05T21:15:46.516Z,92671.47
2023-05-05T21:20:48.300Z,92682.56
2023-05-05T21:25:50.139Z,92681.41
2023-05-05T21:31:10.141Z,92680.56
2023-05-05T21:36:17.437Z,92674.75
2023-05-05T21:41:19.224Z,92659.88
2023-05-05T21:46:21.101Z,92656.47
2023-05-05T21:51:23.528Z,92655.97
2023-05-05T21:56:25.286Z,92664.25
2023-05-05T22:01:27.117Z,92654.91
2023-05-05T22:06:29.010Z,92646.03
2023-05-05T22:11:31.240Z,92647.66
2023-05-05T22:16:33.050Z,92646.47
2023-05-05T22:21:34.883Z,92637.78
2023-05-05T22:26:36.651Z,92648.59
2023-05-05T22:31:38.759Z,92644.00
2023-05-05T22:36:40.750Z,92642.41
2023-05-05T22:41:42.534Z,92639.84
2023-05-05T22:46:44.375Z,92649.69
2023-05-05T22:51:46.949Z,92616.84
2023-05-05T22:56:48.711Z,92645.00
2023-05-05T23:01:50.482Z,92659.88
2023-05-05T23:06:52.203Z,92656.97
2023-05-05T23:11:54.070Z,92657.41
2023-05-05T23:16:55.877Z,92651.94
2023-05-05T23:21:57.994Z,92642.50
2023-05-05T23:27:04.113Z,92649.19
2023-05-05T23:32:08.789Z,92638.09
2023-05-05T23:37:10.655Z,92630.88
2023-05-05T23:42:12.396Z,92643.22
2023-05-05T23:47:14.101Z,92639.63
2023-05-05T23:52:16.080Z,92639.41
2023-05-05T23:57:17.819Z,92635.81
